Time;durP1;ratioP1;P1;durP2;ratioP2;P2;SDS_P1;SDS_P2;PMS_P1;PMS_P2;Temp;Humidity;BMP_temperature;BMP_pressure;BME280_temperature;BME280_humidity;BME280_pressure;Samples;Min_cycle;Max_cycle;Signal;HPM_P1;HPM_P2
2024/03/19 00:00:21;;;;;;;5.33;3.97;;;22.10;75.80;;;;;;5007967;28;20489;-73
2024/03/19 00:02:47;;;;;;;3.97;3.57;;;22.00;75.80;;;;;;5003925;28;20917;-68
2024/03/19 00:05:14;;;;;;;3.70;3.27;;;22.00;75.90;;;;;;5009488;28;20851;-73
2024/03/19 00:07:41;;;;;;;3.30;2.60;;;22.00;76.70;;;;;;5005976;28;20550;-72
2024/03/19 00:10:08;;;;;;;3.90;3.60;;;22.00;75.90;;;;;;5004969;28;20959;-71
2024/03/19 00:12:35;;;;;;;3.70;3.40;;;21.90;75.60;;;;;;5006162;28;20513;-72
2024/03/19 00:15:05;;;;;;;3.30;3.00;;;22.00;75.80;;;;;;5010342;28;20466;-67
2024/03/19 00:17:32;;;;;;;3.00;2.80;;;22.00;75.70;;;;;;5006154;28;20461;-69
2024/03/19 00:19:59;;;;;;;3.30;3.00;;;22.00;75.70;;;;;;5006660;28;21088;-69
2024/03/19 00:22:25;;;;;;;5.10;3.80;;;21.90;75.60;;;;;;5005571;28;20571;-72
2024/03/19 00:24:52;;;;;;;3.33;3.03;;;21.90;75.70;;;;;;5007067;28;20938;-71
2024/03/19 00:27:19;;;;;;;3.03;2.80;;;21.90;75.90;;;;;;5006003;28;20486;-71
2024/03/19 00:29:46;;;;;;;3.87;3.57;;;21.80;75.70;;;;;;5012626;28;20469;-71
2024/03/19 00:32:14;;;;;;;4.63;3.83;;;21.80;75.90;;;;;;5007198;28;20470;-70
2024/03/19 00:34:41;;;;;;;3.57;3.27;;;21.80;76.00;;;;;;4989690;28;20466;-71
2024/03/19 00:37:08;;;;;;;3.30;3.00;;;21.80;76.10;;;;;;4999021;28;20465;-70
2024/03/19 00:39:34;;;;;;;3.87;3.47;;;21.80;76.10;;;;;;5006937;28;20808;-68
2024/03/19 00:42:02;;;;;;;4.00;3.70;;;21.70;76.20;;;;;;5004540;28;20489;-73
2024/03/19 00:44:28;;;;;;;3.30;2.83;;;21.70;76.30;;;;;;5005239;28;21001;-70
2024/03/19 00:46:55;;;;;;;3.70;3.40;;;21.70;76.40;;;;;;5006157;28;21075;-73
2024/03/19 00:49:23;;;;;;;3.07;2.87;;;21.60;76.40;;;;;;5005062;28;20555;-72
2024/03/19 00:51:50;;;;;;;3.75;3.45;;;21.60;76.50;;;;;;5006078;28;20458;-72
2024/03/19 00:54:17;;;;;;;3.97;3.67;;;21.60;76.60;;;;;;5000381;28;20197;-69
2024/03/19 00:56:44;;;;;;;4.20;3.80;;;21.50;76.60;;;;;;5003278;28;20458;-72
2024/03/19 00:59:11;;;;;;;3.85;3.40;;;21.50;76.70;;;;;;5006353;28;20470;-69
2024/03/19 01:01:37;;;;;;;4.27;3.87;;;21.50;76.80;;;;;;5007364;28;20211;-72
2024/03/19 01:04:05;;;;;;;3.10;2.70;;;21.50;77.00;;;;;;5005550;28;20554;-73
2024/03/19 01:06:33;;;;;;;3.80;3.50;;;21.40;76.90;;;;;;5004079;28;20475;-72
2024/03/19 01:09:00;;;;;;;3.60;3.30;;;21.40;77.00;;;;;;5002400;28;20202;-73
2024/03/19 01:11:27;;;;;;;5.45;3.45;;;21.40;77.00;;;;;;5004532;28;20904;-71
2024/03/19 01:13:55;;;;;;;4.30;3.90;;;21.40;77.10;;;;;;5005584;28;20287;-72
2024/03/19 01:16:21;;;;;;;3.05;2.80;;;21.30;77.10;;;;;;5002904;28;20454;-68
2024/03/19 01:18:48;;;;;;;3.60;3.00;;;21.30;77.30;;;;;;5006673;28;20645;-71
2024/03/19 01:21:16;;;;;;;4.25;3.85;;;21.30;77.40;;;;;;5003302;28;21181;-74
2024/03/19 01:23:45;;;;;;;4.20;3.80;;;21.30;77.40;;;;;;4997948;28;20215;-73
2024/03/19 01:26:12;;;;;;;3.95;3.20;;;21.30;77.50;;;;;;5003917;28;20221;-71
2024/03/19 01:28:38;;;;;;;3.73;3.43;;;21.20;77.50;;;;;;5002673;28;21223;-69
2024/03/19 01:31:05;;;;;;;3.75;3.45;;;21.20;77.60;;;;;;5001739;28;20459;-71
2024/03/19 01:33:32;;;;;;;3.80;3.50;;;21.20;77.70;;;;;;5006591;28;20199;-69
2024/03/19 01:35:58;;;;;;;3.57;3.27;;;21.20;77.80;;;;;;5003981;28;20203;-70
2024/03/19 01:38:25;;;;;;;4.65;3.63;;;21.10;77.80;;;;;;5004440;28;20961;-67
2024/03/19 01:40:53;;;;;;;3.53;3.23;;;21.10;77.90;;;;;;5004976;28;20215;-73
2024/03/19 01:43:20;;;;;;;3.72;3.38;;;21.10;78.00;;;;;;5004700;28;21043;-72
2024/03/19 01:46:14;;;;;;;3.57;3.27;;;21.10;78.10;;;;;;5005555;28;20296;-71
2024/03/19 01:48:41;;;;;;;3.33;3.03;;;21.00;78.10;;;;;;5002799;28;20981;-72
2024/03/19 01:51:09;;;;;;;4.03;3.67;;;21.00;78.20;;;;;;5002934;28;20211;-74
2024/03/19 01:53:35;;;;;;;3.58;3.33;;;21.00;78.30;;;;;;5004515;28;20732;-70
2024/03/19 01:56:06;;;;;;;3.30;3.00;;;20.90;78.30;;;;;;5007115;28;20197;-72
2024/03/19 01:58:34;;;;;;;3.53;3.22;;;20.90;78.40;;;;;;5008527;28;20209;-67
2024/03/19 02:01:01;;;;;;;4.22;3.45;;;20.90;78.50;;;;;;5006169;28;20202;-68
2024/03/19 02:03:28;;;;;;;3.83;3.53;;;20.90;78.70;;;;;;5001559;28;20207;-71
2024/03/19 02:05:55;;;;;;;3.33;3.13;;;20.90;78.80;;;;;;5003124;28;20214;-72
2024/03/19 02:08:22;;;;;;;3.95;3.58;;;20.80;78.80;;;;;;4998688;28;21282;-71
2024/03/19 02:10:49;;;;;;;3.55;3.25;;;20.80;78.90;;;;;;5007425;28;20680;-70
2024/03/19 02:13:17;;;;;;;3.75;3.45;;;20.80;78.70;;;;;;5006213;28;20672;-70
2024/03/19 02:15:43;;;;;;;3.85;3.53;;;20.80;79.00;;;;;;5001329;28;20200;-73
2024/03/19 02:18:11;;;;;;;3.50;3.20;;;20.70;78.90;;;;;;5005479;28;20207;-70
2024/03/19 02:20:38;;;;;;;4.07;3.75;;;20.70;79.10;;;;;;5006599;28;20196;-68
2024/03/19 02:23:06;;;;;;;3.20;2.90;;;20.70;79.20;;;;;;5005461;28;20213;-71
2024/03/19 02:25:32;;;;;;;3.97;3.67;;;20.60;79.30;;;;;;5002973;28;20204;-73
2024/03/19 02:27:59;;;;;;;4.75;4.35;;;20.60;79.50;;;;;;5007287;28;20220;-67
2024/03/19 02:30:26;;;;;;;3.88;3.58;;;20.60;79.60;;;;;;5005770;28;20207;-68
2024/03/19 02:32:52;;;;;;;3.08;2.88;;;20.60;79.70;;;;;;5008067;28;20553;-67
2024/03/19 02:35:19;;;;;;;3.60;3.30;;;20.60;79.80;;;;;;5005833;28;20208;-73
2024/03/19 02:37:46;;;;;;;3.30;3.10;;;20.50;79.90;;;;;;5003295;28;20216;-66
2024/03/19 02:40:16;;;;;;;3.20;2.63;;;20.50;80.00;;;;;;5004222;28;20286;-68
2024/03/19 02:42:42;;;;;;;4.07;3.78;;;20.50;80.10;;;;;;5005018;28;20774;-72
2024/03/19 02:45:10;;;;;;;4.20;3.80;;;20.50;80.20;;;;;;5000318;28;20848;-73
2024/03/19 02:47:36;;;;;;;4.55;4.15;;;20.40;80.10;;;;;;5004063;28;20227;-71
2024/03/19 02:50:03;;;;;;;3.63;3.33;;;20.40;80.20;;;;;;5002832;28;20208;-71
2024/03/19 02:52:30;;;;;;;3.40;3.10;;;20.40;80.20;;;;;;5004047;28;20200;-67
2024/03/19 02:54:57;;;;;;;3.33;3.05;;;20.40;80.30;;;;;;5006130;28;20701;-70
2024/03/19 02:57:25;;;;;;;4.05;3.70;;;20.40;80.30;;;;;;5004964;28;20200;-68
2024/03/19 02:59:52;;;;;;;3.60;3.30;;;20.40;80.40;;;;;;5004627;28;20203;-71
2024/03/19 03:02:19;;;;;;;3.50;3.25;;;20.40;80.60;;;;;;4997167;28;20217;-71
2024/03/19 03:04:45;;;;;;;3.42;3.13;;;20.30;80.60;;;;;;5002971;28;20200;-71
2024/03/19 03:07:12;;;;;;;3.78;3.47;;;20.30;80.70;;;;;;5003103;28;20220;-65
2024/03/19 03:09:39;;;;;;;3.65;3.35;;;20.30;80.80;;;;;;5006476;28;20215;-73
2024/03/19 03:12:06;;;;;;;2.88;2.60;;;20.20;80.70;;;;;;5004108;28;20200;-70
2024/03/19 03:14:34;;;;;;;3.35;3.05;;;20.20;80.80;;;;;;5004502;28;20199;-68
2024/03/19 03:17:00;;;;;;;3.72;3.42;;;20.20;80.80;;;;;;5006347;28;20206;-71
2024/03/19 03:19:27;;;;;;;4.55;4.15;;;20.20;80.90;;;;;;5007643;28;20200;-69
2024/03/19 03:21:54;;;;;;;3.92;3.53;;;20.20;81.00;;;;;;5005495;28;20291;-72
2024/03/19 03:24:20;;;;;;;4.05;3.70;;;20.20;81.00;;;;;;5000963;28;20207;-70
2024/03/19 03:26:48;;;;;;;3.28;2.97;;;20.10;81.00;;;;;;5008137;28;20219;-71
2024/03/19 03:29:15;;;;;;;3.30;3.00;;;20.10;81.00;;;;;;5005877;28;20200;-72
2024/03/19 03:31:44;;;;;;;3.38;3.08;;;20.10;81.10;;;;;;4999948;28;21111;-68
2024/03/19 03:34:11;;;;;;;3.75;3.20;;;20.10;81.20;;;;;;5005891;28;20216;-68
2024/03/19 03:36:38;;;;;;;3.83;3.20;;;20.10;81.20;;;;;;5006553;28;20203;-71
2024/03/19 03:39:05;;;;;;;3.30;3.00;;;20.10;81.30;;;;;;4998503;28;20199;-67
2024/03/19 03:41:33;;;;;;;3.45;3.15;;;20.10;81.40;;;;;;5005613;28;20871;-71
2024/03/19 03:43:59;;;;;;;3.30;3.10;;;20.00;81.40;;;;;;5001704;28;20688;-73
2024/03/19 03:46:26;;;;;;;4.00;3.70;;;20.00;81.40;;;;;;5001555;28;20206;-70
2024/03/19 03:48:54;;;;;;;3.90;3.60;;;20.00;81.50;;;;;;5004161;28;20204;-67
2024/03/19 03:51:21;;;;;;;3.58;3.28;;;20.00;81.50;;;;;;5004118;28;20286;-70
2024/03/19 03:53:48;;;;;;;3.90;3.60;;;19.90;81.60;;;;;;5007855;28;20207;-70
2024/03/19 03:56:15;;;;;;;3.15;2.85;;;19.90;81.60;;;;;;5005656;28;20595;-73
2024/03/19 03:58:42;;;;;;;3.65;3.35;;;19.90;81.60;;;;;;5005378;28;20222;-69
2024/03/19 04:01:10;;;;;;;3.85;3.45;;;19.90;81.70;;;;;;5004161;28;20746;-67
2024/03/19 04:03:37;;;;;;;3.90;3.60;;;19.90;81.80;;;;;;5001985;28;20223;-68
2024/03/19 04:06:05;;;;;;;3.13;2.80;;;19.90;81.90;;;;;;5001821;28;20199;-71
2024/03/19 04:08:32;;;;;;;4.00;3.70;;;19.90;82.00;;;;;;5000023;28;20710;-71
2024/03/19 04:10:59;;;;;;;3.63;3.33;;;19.80;81.90;;;;;;5000492;28;20203;-72
2024/03/19 04:13:26;;;;;;;3.90;3.50;;;19.80;82.00;;;;;;5003960;28;20205;-68
2024/03/19 04:15:52;;;;;;;2.78;2.58;;;19.80;82.80;;;;;;5004924;28;20223;-69
2024/03/19 04:18:19;;;;;;;3.50;3.00;;;19.80;82.10;;;;;;5005700;28;20224;-71
2024/03/19 04:20:46;;;;;;;3.72;3.42;;;19.80;82.10;;;;;;5002414;28;20200;-68
2024/03/19 04:23:14;;;;;;;3.50;3.15;;;19.80;82.30;;;;;;5004395;28;20196;-70
2024/03/19 04:25:41;;;;;;;3.50;3.20;;;19.70;82.30;;;;;;5003083;28;20689;-71
2024/03/19 04:28:07;;;;;;;3.70;3.25;;;19.70;82.50;;;;;;4999580;28;20223;-73
2024/03/19 04:30:34;;;;;;;3.80;3.40;;;19.70;82.60;;;;;;5001922;28;20200;-66
2024/03/19 04:33:01;;;;;;;4.18;3.78;;;19.70;82.70;;;;;;5004010;28;20200;-73
2024/03/19 04:35:28;;;;;;;3.10;2.80;;;19.70;82.80;;;;;;5001187;28;20560;-71
2024/03/19 04:37:54;;;;;;;3.92;3.60;;;19.70;82.80;;;;;;5003460;28;20265;-69
2024/03/19 04:40:24;;;;;;;3.80;3.05;;;19.70;82.90;;;;;;5003773;28;20218;-70
2024/03/19 04:42:50;;;;;;;3.88;3.55;;;19.60;82.80;;;;;;4999889;28;20195;-72
2024/03/19 04:45:17;;;;;;;3.55;3.25;;;19.60;82.90;;;;;;4998619;28;20203;-70
2024/03/19 04:47:44;;;;;;;3.80;3.50;;;19.60;83.00;;;;;;4996561;28;20243;-72
2024/03/19 04:50:11;;;;;;;3.40;3.10;;;19.60;82.90;;;;;;5000847;28;20216;-68
2024/03/19 04:52:37;;;;;;;3.60;3.30;;;19.60;83.00;;;;;;4996279;28;20203;-69
2024/03/19 04:55:04;;;;;;;3.40;3.00;;;19.60;82.90;;;;;;4999096;28;20203;-73
2024/03/19 04:57:33;;;;;;;3.67;3.38;;;19.60;83.00;;;;;;5005462;28;20199;-72
2024/03/19 05:00:00;;;;;;;3.35;3.05;;;19.50;83.00;;;;;;5006100;28;20203;-71
2024/03/19 05:02:26;;;;;;;3.33;3.13;;;19.50;83.10;;;;;;5002489;28;22728;-70
2024/03/19 05:04:52;;;;;;;3.53;3.22;;;19.50;83.10;;;;;;5006738;28;20203;-67
2024/03/19 05:07:19;;;;;;;3.40;3.10;;;19.50;83.10;;;;;;5004080;28;21099;-69
2024/03/19 05:09:46;;;;;;;3.50;3.20;;;19.50;83.30;;;;;;5005677;28;20199;-67
2024/03/19 05:12:12;;;;;;;3.65;3.35;;;19.50;83.40;;;;;;5005106;28;20567;-70
2024/03/19 05:14:40;;;;;;;3.47;3.17;;;19.50;83.40;;;;;;5007297;28;20250;-73
2024/03/19 05:17:07;;;;;;;4.15;3.30;;;19.50;83.40;;;;;;5002459;28;20287;-73
2024/03/19 05:19:34;;;;;;;3.03;2.83;;;19.50;83.40;;;;;;5005711;28;20207;-69
2024/03/19 05:22:01;;;;;;;3.50;3.20;;;19.50;83.50;;;;;;5003958;28;20203;-68
2024/03/19 05:24:28;;;;;;;3.13;2.92;;;19.40;83.40;;;;;;5005656;28;20211;-71
2024/03/19 05:26:54;;;;;;;4.00;3.70;;;19.40;83.40;;;;;;5004370;28;20200;-71
2024/03/19 05:29:21;;;;;;;3.20;3.00;;;19.40;83.50;;;;;;5004719;28;20243;-69
2024/03/19 05:31:49;;;;;;;3.47;3.28;;;19.40;83.50;;;;;;5005260;28;20211;-68
2024/03/19 05:34:16;;;;;;;3.85;3.50;;;19.40;83.50;;;;;;5006313;28;20290;-73
2024/03/19 05:36:43;;;;;;;3.15;2.92;;;19.40;83.50;;;;;;5003742;28;20200;-72
2024/03/19 05:39:09;;;;;;;3.33;3.08;;;19.40;83.50;;;;;;5007721;28;20262;-69
2024/03/19 05:41:36;;;;;;;3.38;2.72;;;19.40;83.60;;;;;;5007841;28;20191;-69
2024/03/19 05:44:03;;;;;;;3.17;2.97;;;19.40;83.60;;;;;;5005061;28;20289;-70
2024/03/19 05:46:30;;;;;;;3.63;3.33;;;19.40;83.70;;;;;;5005797;28;20207;-67
2024/03/19 05:48:58;;;;;;;3.67;3.38;;;19.30;83.70;;;;;;5005570;28;20680;-66
2024/03/19 05:51:25;;;;;;;4.13;3.83;;;19.30;84.00;;;;;;4998229;28;20282;-70
2024/03/19 05:53:51;;;;;;;3.55;3.25;;;19.30;84.20;;;;;;5004601;28;20215;-72
2024/03/19 05:56:18;;;;;;;3.83;3.40;;;19.30;84.50;;;;;;4997432;28;20199;-67
2024/03/19 05:58:45;;;;;;;3.13;2.92;;;19.30;85.30;;;;;;5007417;28;20199;-67
2024/03/19 06:01:12;;;;;;;3.80;3.50;;;19.30;84.70;;;;;;5004884;28;20654;-68
2024/03/19 06:03:39;;;;;;;3.92;3.63;;;19.30;84.80;;;;;;4999790;28;20200;-67
2024/03/19 06:06:09;;;;;;;3.72;3.42;;;19.30;85.60;;;;;;5004441;28;20210;-67
2024/03/19 06:08:36;;;;;;;3.50;3.30;;;19.30;84.70;;;;;;5003000;28;20289;-71
2024/03/19 06:11:03;;;;;;;3.95;3.65;;;19.20;85.30;;;;;;5002759;28;20216;-71
2024/03/19 06:13:29;;;;;;;2.92;2.72;;;19.30;84.80;;;;;;5000430;28;20208;-65
2024/03/19 06:15:56;;;;;;;3.85;3.55;;;19.20;84.90;;;;;;5001906;28;21045;-69
2024/03/19 06:18:23;;;;;;;3.70;3.40;;;19.20;85.10;;;;;;5003279;28;20203;-69
2024/03/19 06:20:50;;;;;;;3.00;2.80;;;19.20;85.20;;;;;;5002597;28;20204;-72
2024/03/19 06:23:17;;;;;;;3.10;2.90;;;19.20;85.30;;;;;;5002526;28;20198;-68
2024/03/19 06:25:44;;;;;;;4.28;3.97;;;19.20;85.10;;;;;;5005669;28;20207;-70
2024/03/19 06:28:11;;;;;;;3.65;3.17;;;19.20;85.30;;;;;;5003205;28;20223;-73
2024/03/19 06:30:38;;;;;;;3.30;3.05;;;19.20;85.40;;;;;;4999616;28;20195;-70
2024/03/19 06:33:06;;;;;;;3.15;2.95;;;19.20;85.30;;;;;;5003930;28;20212;-70
2024/03/19 06:35:33;;;;;;;2.70;2.50;;;19.20;85.40;;;;;;5004865;28;20211;-69
2024/03/19 06:38:00;;;;;;;4.07;3.60;;;19.20;85.80;;;;;;5004690;28;20223;-68
2024/03/19 06:40:28;;;;;;;3.92;3.63;;;19.20;85.40;;;;;;4962883;28;20212;-70
2024/03/19 06:42:55;;;;;;;3.38;3.08;;;19.20;85.30;;;;;;5005856;28;20200;-71
2024/03/19 06:45:22;;;;;;;3.13;2.92;;;19.20;85.60;;;;;;5009030;28;20214;-71
2024/03/19 06:47:49;;;;;;;3.67;3.38;;;19.10;85.40;;;;;;5008299;28;20227;-69
2024/03/19 06:50:19;;;;;;;2.70;2.50;;;19.10;85.20;;;;;;5005473;28;20200;-71
2024/03/19 06:52:45;;;;;;;3.95;3.60;;;19.10;85.40;;;;;;5005267;28;20214;-68
2024/03/19 06:55:12;;;;;;;3.47;3.17;;;19.10;85.30;;;;;;5007100;28;20215;-69
2024/03/19 06:57:42;;;;;;;4.13;3.83;;;19.10;85.40;;;;;;5002827;28;20207;-72
2024/03/19 07:00:13;;;;;;;2.85;2.65;;;19.10;85.30;;;;;;5001196;28;20203;-71
2024/03/19 07:02:41;;;;;;;3.13;2.92;;;19.10;85.30;;;;;;5005540;28;20204;-70
2024/03/19 07:05:08;;;;;;;3.40;3.10;;;19.10;85.10;;;;;;5002106;28;21023;-72
2024/03/19 07:07:35;;;;;;;3.33;3.03;;;19.10;85.10;;;;;;5004233;28;20200;-69
2024/03/19 07:10:02;;;;;;;3.80;3.50;;;19.10;85.10;;;;;;5006698;28;20208;-71
2024/03/19 07:12:29;;;;;;;2.83;2.53;;;19.10;85.10;;;;;;5006099;28;20210;-71
2024/03/19 07:14:59;;;;;;;3.53;3.20;;;19.10;85.10;;;;;;5009071;28;20196;-69
2024/03/19 07:17:26;;;;;;;3.05;2.75;;;19.10;85.50;;;;;;5004772;28;21447;-69
2024/03/19 07:19:54;;;;;;;3.50;3.20;;;19.10;85.10;;;;;;5006043;28;20290;-68
2024/03/19 07:22:20;;;;;;;3.15;2.95;;;19.10;85.10;;;;;;5005419;28;20208;-69
2024/03/19 07:24:48;;;;;;;3.33;3.03;;;19.10;85.10;;;;;;5003955;28;20207;-71
2024/03/19 07:27:14;;;;;;;3.60;3.30;;;19.10;85.60;;;;;;5006492;28;20203;-71
2024/03/19 07:29:42;;;;;;;3.22;3.03;;;19.00;85.00;;;;;;5005775;28;20219;-71
2024/03/19 07:32:10;;;;;;;3.25;3.03;;;19.00;85.20;;;;;;5005504;28;20208;-71
2024/03/19 07:34:37;;;;;;;3.05;2.85;;;19.00;85.10;;;;;;5007029;28;20227;-72
2024/03/19 07:37:04;;;;;;;3.10;2.80;;;19.00;85.20;;;;;;5002691;28;20226;-71
2024/03/19 07:39:31;;;;;;;3.03;2.83;;;19.00;86.20;;;;;;5006562;28;20235;-72
2024/03/19 07:41:59;;;;;;;3.30;3.00;;;19.10;85.50;;;;;;5007989;28;20286;-72
2024/03/19 07:44:25;;;;;;;3.67;3.38;;;19.20;85.80;;;;;;5006511;28;20203;-72
2024/03/19 07:46:52;;;;;;;3.10;2.88;;;19.30;85.00;;;;;;5002827;28;20254;-72
2024/03/19 07:49:20;;;;;;;3.45;3.13;;;19.40;85.20;;;;;;5004311;28;20228;-71
2024/03/19 07:51:47;;;;;;;3.25;2.95;;;19.50;85.00;;;;;;5005736;28;20200;-71
2024/03/19 07:54:13;;;;;;;3.80;3.47;;;19.50;84.30;;;;;;5005397;28;20203;-73
2024/03/19 07:56:43;;;;;;;3.20;2.90;;;19.50;84.20;;;;;;5007823;28;20682;-72
2024/03/19 07:59:10;;;;;;;3.70;3.40;;;19.60;84.20;;;;;;5004712;28;20211;-73
2024/03/19 08:01:36;;;;;;;4.55;3.70;;;19.70;83.90;;;;;;5004807;28;20200;-70
2024/03/19 08:04:03;;;;;;;4.18;3.72;;;19.70;84.10;;;;;;5005146;28;20226;-69
2024/03/19 08:06:32;;;;;;;11.07;4.10;;;19.70;84.10;;;;;;5010984;28;20231;-72
2024/03/19 08:08:59;;;;;;;3.63;3.33;;;19.80;84.40;;;;;;5005226;28;20703;-71
2024/03/19 08:11:26;;;;;;;4.45;3.50;;;19.80;84.10;;;;;;4998502;28;20204;-72
2024/03/19 08:13:52;;;;;;;3.78;3.47;;;19.90;84.00;;;;;;5004712;28;20287;-70
2024/03/19 08:16:19;;;;;;;4.70;3.38;;;19.80;83.80;;;;;;5000951;28;20203;-72
2024/03/19 08:18:48;;;;;;;4.07;3.25;;;19.90;84.40;;;;;;5004375;28;20695;-72
2024/03/19 08:21:14;;;;;;;6.88;3.70;;;19.90;83.70;;;;;;5001498;28;21245;-70
2024/03/19 08:23:46;;;;;;;3.20;2.90;;;19.90;83.60;;;;;;5002128;28;20220;-73
2024/03/19 08:26:14;;;;;;;3.53;3.22;;;20.00;83.40;;;;;;4998675;28;20261;-69
2024/03/19 08:28:41;;;;;;;2.92;2.72;;;20.00;83.40;;;;;;5004566;28;20274;-69
2024/03/19 08:31:09;;;;;;;2.40;2.20;;;20.00;83.10;;;;;;5007853;28;20288;-68
2024/03/19 08:33:36;;;;;;;3.20;3.00;;;20.10;82.90;;;;;;5005384;28;20232;-70
2024/03/19 08:36:04;;;;;;;2.65;2.45;;;20.10;82.90;;;;;;5003898;28;20358;-73
2024/03/19 08:38:31;;;;;;;3.58;3.20;;;20.20;83.00;;;;;;4998437;28;20548;-71
2024/03/19 08:41:00;;;;;;;3.40;2.47;;;20.20;82.50;;;;;;5002571;28;20210;-72
2024/03/19 08:43:26;;;;;;;3.90;3.30;;;20.20;82.40;;;;;;5003730;28;20199;-71
2024/03/19 08:45:53;;;;;;;3.00;2.70;;;20.30;82.30;;;;;;5000569;28;20821;-74
2024/03/19 08:48:20;;;;;;;3.58;2.35;;;20.40;83.50;;;;;;5001115;28;20836;-71
2024/03/19 08:50:46;;;;;;;3.10;2.80;;;20.40;82.50;;;;;;5005851;28;20307;-72
2024/03/19 08:53:13;;;;;;;7.80;3.38;;;20.40;81.60;;;;;;5008459;28;20208;-71
2024/03/19 08:55:40;;;;;;;3.38;3.17;;;20.40;81.80;;;;;;5002702;28;20743;-77
2024/03/19 08:58:08;;;;;;;2.72;2.53;;;20.60;82.50;;;;;;5000862;28;20204;-67
2024/03/19 09:00:35;;;;;;;2.60;2.40;;;20.60;82.30;;;;;;5005844;28;20246;-69
2024/03/19 09:03:04;;;;;;;3.17;2.88;;;20.60;82.00;;;;;;5002873;28;20219;-69
2024/03/19 09:05:30;;;;;;;3.03;2.70;;;20.70;82.90;;;;;;5006238;28;20199;-68
2024/03/19 09:07:57;;;;;;;2.97;2.67;;;20.70;81.70;;;;;;5007871;28;20205;-69
2024/03/19 09:10:24;;;;;;;2.90;2.70;;;20.70;81.40;;;;;;5005376;28;20202;-71
2024/03/19 09:12:50;;;;;;;4.43;2.67;;;20.80;81.20;;;;;;5011803;28;20215;-68
2024/03/19 09:15:19;;;;;;;4.27;2.90;;;20.80;83.70;;;;;;5010007;28;20211;-69
2024/03/19 09:17:46;;;;;;;2.58;2.38;;;20.90;83.10;;;;;;5002950;28;20463;-68
2024/03/19 09:20:14;;;;;;;2.80;2.60;;;21.10;83.70;;;;;;5005906;28;20203;-69
2024/03/19 09:22:41;;;;;;;2.67;2.47;;;20.90;80.70;;;;;;5003824;28;20469;-69
2024/03/19 09:25:09;;;;;;;3.20;2.90;;;20.90;80.50;;;;;;5002223;28;20676;-71
2024/03/19 09:27:39;;;;;;;2.17;1.97;;;21.00;80.10;;;;;;5000517;28;20459;-70
2024/03/19 09:30:08;;;;;;;2.60;2.40;;;21.20;80.60;;;;;;5006930;28;20560;-67
2024/03/19 09:32:37;;;;;;;3.20;2.80;;;;;;;;;;5006806;28;20501;-70
2024/03/19 09:35:04;;;;;;;3.27;2.97;;;21.30;78.20;;;;;;4999876;28;20467;-68
2024/03/19 09:37:31;;;;;;;2.83;2.27;;;21.30;78.50;;;;;;5004999;28;20559;-69
2024/03/19 09:39:58;;;;;;;3.43;2.63;;;21.30;77.90;;;;;;5006838;28;20553;-71
2024/03/19 09:42:26;;;;;;;2.77;2.57;;;21.40;77.80;;;;;;5006711;28;20477;-71
2024/03/19 09:44:54;;;;;;;3.37;2.47;;;21.40;77.60;;;;;;5006453;28;20823;-68
2024/03/19 09:47:22;;;;;;;4.53;2.50;;;21.50;77.50;;;;;;5006645;28;20458;-69
2024/03/19 09:49:50;;;;;;;2.83;2.53;;;21.50;77.20;;;;;;5009113;28;21547;-70
2024/03/19 09:52:17;;;;;;;2.60;2.40;;;21.60;76.90;;;;;;5008496;28;20784;-71
2024/03/19 09:54:44;;;;;;;3.00;2.70;;;21.60;76.70;;;;;;5007340;28;20466;-70
2024/03/19 09:57:14;;;;;;;4.93;4.40;;;21.70;76.50;;;;;;5009580;28;21027;-70
2024/03/19 09:59:41;;;;;;;6.77;4.97;;;21.70;74.20;;;;;;5009674;28;20442;-69
2024/03/19 10:02:16;;;;;;;18.87;9.57;;;21.80;71.80;;;;;;5009611;28;20454;-70
2024/03/19 10:04:45;;;;;;;25.47;9.80;;;21.80;69.20;;;;;;5011161;28;20433;-69
2024/03/19 10:07:14;;;;;;;11.40;7.77;;;21.70;68.10;;;;;;5007730;28;20462;-69
2024/03/19 10:09:44;;;;;;;17.77;7.83;;;21.90;70.40;;;;;;5006055;28;20490;-70
2024/03/19 10:12:11;;;;;;;10.20;6.23;;;21.90;70.60;;;;;;5010237;28;21189;-68
2024/03/19 10:14:38;;;;;;;8.77;4.90;;;22.00;70.60;;;;;;5007253;28;20464;-68
2024/03/19 10:17:06;;;;;;;8.97;4.87;;;22.00;70.60;;;;;;5009178;28;20989;-68
2024/03/19 10:19:34;;;;;;;8.00;4.73;;;22.10;70.70;;;;;;5007498;28;20470;-68
2024/03/19 10:22:00;;;;;;;8.03;4.83;;;22.10;70.90;;;;;;5008339;28;20496;-71
2024/03/19 10:24:29;;;;;;;6.03;3.97;;;22.10;71.40;;;;;;5008062;28;20466;-67
2024/03/19 10:26:55;;;;;;;5.37;3.57;;;22.20;71.50;;;;;;5004211;28;20461;-74
2024/03/19 10:29:22;;;;;;;7.20;4.00;;;22.20;72.00;;;;;;5005729;28;20474;-73
2024/03/19 10:31:49;;;;;;;6.47;3.23;;;22.30;72.60;;;;;;5006036;28;20495;-68
2024/03/19 10:34:17;;;;;;;4.60;3.47;;;22.30;72.60;;;;;;5003757;28;20466;-69
2024/03/19 10:36:47;;;;;;;4.67;3.47;;;22.40;72.90;;;;;;5005606;28;20450;-71
2024/03/19 10:39:15;;;;;;;3.90;3.27;;;22.40;72.90;;;;;;5000554;28;20454;-71
2024/03/19 10:41:43;;;;;;;4.63;3.10;;;22.40;73.40;;;;;;5007371;28;20486;-68
2024/03/19 10:44:15;;;;;;;5.90;3.63;;;22.40;73.80;;;;;;5006162;28;20550;-69
2024/03/19 10:46:42;;;;;;;3.43;3.13;;;22.40;74.50;;;;;;5005558;28;20985;-72
2024/03/19 10:49:13;;;;;;;4.50;3.27;;;22.50;73.90;;;;;;5005163;28;20497;-72
2024/03/19 10:51:40;;;;;;;4.00;3.20;;;22.60;73.90;;;;;;5005165;28;20473;-73
2024/03/19 10:54:08;;;;;;;5.73;2.73;;;22.60;73.80;;;;;;5002673;28;20467;-67
2024/03/19 10:56:35;;;;;;;2.87;2.60;;;22.60;73.70;;;;;;5006267;28;20465;-71
2024/03/19 10:59:03;;;;;;;4.47;3.17;;;22.70;73.60;;;;;;5006282;28;20541;-69
2024/03/19 11:01:30;;;;;;;5.83;3.60;;;22.70;73.50;;;;;;5003409;28;20481;-71
2024/03/19 11:03:58;;;;;;;6.57;2.87;;;22.70;73.20;;;;;;5007383;28;20466;-66
2024/03/19 11:06:25;;;;;;;3.10;2.60;;;22.70;73.00;;;;;;5006126;28;21010;-70
2024/03/19 11:08:54;;;;;;;4.03;2.50;;;22.70;73.10;;;;;;5002174;28;21239;-72
2024/03/19 11:11:20;;;;;;;3.40;2.37;;;22.80;73.10;;;;;;5005005;28;20545;-69
2024/03/19 11:13:51;;;;;;;4.50;3.40;;;22.80;73.50;;;;;;5011610;28;20464;-71
2024/03/19 11:16:21;;;;;;;3.70;2.53;;;22.80;73.10;;;;;;5010811;28;20489;-71
2024/03/19 11:18:51;;;;;;;5.23;3.00;;;22.80;73.10;;;;;;5012901;28;20946;-70
2024/03/19 11:21:22;;;;;;;7.20;2.63;;;22.80;73.10;;;;;;5010949;28;21523;-72
2024/03/19 11:23:51;;;;;;;4.33;2.67;;;22.90;73.20;;;;;;5011664;28;21251;-72
2024/03/19 11:26:18;;;;;;;4.37;2.60;;;22.90;73.10;;;;;;5009223;28;20466;-73
2024/03/19 11:28:59;;;;;;;3.23;1.80;;;22.90;73.10;;;;;;5010798;28;20454;-72
2024/03/19 11:31:38;;;;;;;3.27;2.70;;;23.00;73.20;;;;;;5008934;28;20967;-71
2024/03/19 11:34:06;;;;;;;3.27;2.87;;;23.00;73.10;;;;;;5008713;28;20533;-70
2024/03/19 11:36:33;;;;;;;4.17;2.17;;;23.10;73.30;;;;;;5002339;28;20969;-73
2024/03/19 11:39:00;;;;;;;4.07;3.20;;;23.10;73.60;;;;;;5009640;28;20447;-68
2024/03/19 11:41:27;;;;;;;3.53;2.30;;;23.10;74.40;;;;;;5004959;28;20500;-69
2024/03/19 11:43:54;;;;;;;2.37;2.10;;;23.10;74.60;;;;;;5005729;28;20948;-70
2024/03/19 11:46:22;;;;;;;4.50;2.33;;;23.20;76.60;;;;;;5006855;28;20465;-71
2024/03/19 11:48:51;;;;;;;2.40;2.20;;;23.30;79.60;;;;;;5002965;28;20458;-69
2024/03/19 11:51:18;;;;;;;3.53;2.27;;;23.10;74.80;;;;;;5004913;28;20585;-73
2024/03/19 11:53:45;;;;;;;4.07;2.47;;;23.20;76.30;;;;;;5002561;28;20465;-71
2024/03/19 11:56:12;;;;;;;3.73;2.27;;;23.20;77.00;;;;;;5006697;28;20459;-73
2024/03/19 11:58:39;;;;;;;10.47;5.20;;;23.40;78.00;;;;;;5000874;28;20465;-69
2024/03/19 12:01:07;;;;;;;10.13;6.70;;;22.00;58.40;;;;;;5002538;28;20570;-71
2024/03/19 12:03:33;;;;;;;11.70;6.70;;;21.60;62.40;;;;;;5007696;28;20469;-74
2024/03/19 12:06:01;;;;;;;8.70;5.50;;;21.50;59.00;;;;;;5005841;28;20463;-71
2024/03/19 12:08:29;;;;;;;7.30;5.33;;;21.30;58.40;;;;;;5005322;28;20466;-71
2024/03/19 12:11:03;;;;;;;7.70;5.37;;;21.30;59.50;;;;;;5008989;28;20482;-70
2024/03/19 12:13:30;;;;;;;6.80;3.80;;;21.40;58.30;;;;;;5008880;28;20486;-72
2024/03/19 12:15:56;;;;;;;5.73;2.90;;;21.70;67.70;;;;;;5006810;28;20467;-73
2024/03/19 12:18:23;;;;;;;4.00;2.87;;;22.30;68.70;;;;;;5004777;28;20475;-73
2024/03/19 12:20:50;;;;;;;4.63;2.93;;;22.50;69.20;;;;;;5006388;28;20443;-71
2024/03/19 12:23:18;;;;;;;3.17;2.30;;;22.60;69.70;;;;;;5002192;28;21061;-69
2024/03/19 12:25:46;;;;;;;4.70;2.57;;;22.70;70.30;;;;;;5002921;28;20566;-70
2024/03/19 12:28:16;;;;;;;4.47;2.20;;;22.70;70.90;;;;;;5004717;28;20474;-73
2024/03/19 12:30:42;;;;;;;5.30;3.00;;;22.80;71.40;;;;;;5005144;28;20624;-73
2024/03/19 12:33:19;;;;;;;5.83;2.60;;;22.80;71.80;;;;;;5008389;28;20989;-71
2024/03/19 12:35:48;;;;;;;2.90;2.43;;;22.80;72.00;;;;;;5010538;28;20480;-68
2024/03/19 12:38:15;;;;;;;3.30;2.43;;;22.80;72.60;;;;;;5007892;28;21711;-70
2024/03/19 12:40:44;;;;;;;3.10;2.23;;;22.90;73.20;;;;;;4999997;28;20473;-67
2024/03/19 12:43:11;;;;;;;8.40;2.30;;;22.90;74.10;;;;;;5011588;28;20467;-67
2024/03/19 12:45:38;;;;;;;6.73;3.30;;;22.90;74.80;;;;;;5010939;28;20462;-67
2024/03/19 12:48:05;;;;;;;3.53;2.23;;;22.80;75.10;;;;;;5008750;28;20459;-71